sensor_id;sensor_type;location;lat;lon;timestamp;P1;durP1;ratioP1;P2;durP2;ratioP2
80675;SDS011;70041;46.088;18.268;2024-01-30T00:01:18;20.55;;;9.55;;
80675;SDS011;70041;46.088;18.268;2024-01-30T00:03:44;24.47;;;9.20;;
80675;SDS011;70041;46.088;18.268;2024-01-30T00:06:09;18.93;;;9.47;;
80675;SDS011;70041;46.088;18.268;2024-01-30T00:08:34;19.93;;;8.43;;
80675;SDS011;70041;46.088;18.268;2024-01-30T00:11:00;18.50;;;8.73;;
80675;SDS011;70041;46.088;18.268;2024-01-30T00:13:26;17.33;;;7.72;;
80675;SDS011;70041;46.088;18.268;2024-01-30T00:15:52;24.23;;;8.77;;
80675;SDS011;70041;46.088;18.268;2024-01-30T00:18:17;20.48;;;8.90;;
80675;SDS011;70041;46.088;18.268;2024-01-30T00:20:43;26.25;;;10.50;;
80675;SDS011;70041;46.088;18.268;2024-01-30T00:23:09;24.90;;;10.07;;
80675;SDS011;70041;46.088;18.268;2024-01-30T00:25:34;21.53;;;9.47;;
80675;SDS011;70041;46.088;18.268;2024-01-30T00:28:00;20.27;;;8.13;;
80675;SDS011;70041;46.088;18.268;2024-01-30T00:30:25;23.35;;;9.02;;
80675;SDS011;70041;46.088;18.268;2024-01-30T00:32:51;25.70;;;9.15;;
80675;SDS011;70041;46.088;18.268;2024-01-30T00:35:17;20.67;;;8.73;;
80675;SDS011;70041;46.088;18.268;2024-01-30T00:37:42;30.52;;;11.70;;
80675;SDS011;70041;46.088;18.268;2024-01-30T00:40:08;28.43;;;10.40;;
80675;SDS011;70041;46.088;18.268;2024-01-30T00:42:38;18.17;;;8.90;;
80675;SDS011;70041;46.088;18.268;2024-01-30T00:45:04;32.70;;;11.70;;
80675;SDS011;70041;46.088;18.268;2024-01-30T00:47:29;31.90;;;12.38;;
80675;SDS011;70041;46.088;18.268;2024-01-30T00:49:55;39.00;;;12.65;;
80675;SDS011;70041;46.088;18.268;2024-01-30T00:52:20;28.23;;;10.93;;
80675;SDS011;70041;46.088;18.268;2024-01-30T00:54:46;26.53;;;10.33;;
80675;SDS011;70041;46.088;18.268;2024-01-30T00:57:11;24.03;;;8.20;;
80675;SDS011;70041;46.088;18.268;2024-01-30T00:59:36;20.00;;;8.33;;
80675;SDS011;70041;46.088;18.268;2024-01-30T01:02:02;24.38;;;9.25;;
80675;SDS011;70041;46.088;18.268;2024-01-30T01:04:29;20.98;;;9.07;;
80675;SDS011;70041;46.088;18.268;2024-01-30T01:06:54;20.30;;;7.83;;
80675;SDS011;70041;46.088;18.268;2024-01-30T01:09:19;18.50;;;7.60;;
80675;SDS011;70041;46.088;18.268;2024-01-30T01:11:45;19.03;;;7.30;;
80675;SDS011;70041;46.088;18.268;2024-01-30T01:14:10;20.30;;;7.43;;
80675;SDS011;70041;46.088;18.268;2024-01-30T01:16:36;20.38;;;8.85;;
80675;SDS011;70041;46.088;18.268;2024-01-30T01:19:02;15.73;;;7.00;;
80675;SDS011;70041;46.088;18.268;2024-01-30T01:21:28;16.02;;;6.85;;
80675;SDS011;70041;46.088;18.268;2024-01-30T01:23:53;22.53;;;7.93;;
80675;SDS011;70041;46.088;18.268;2024-01-30T01:26:19;16.05;;;7.28;;
80675;SDS011;70041;46.088;18.268;2024-01-30T01:28:44;23.63;;;8.15;;
80675;SDS011;70041;46.088;18.268;2024-01-30T01:31:10;17.97;;;6.83;;
80675;SDS011;70041;46.088;18.268;2024-01-30T01:33:35;20.23;;;8.10;;
80675;SDS011;70041;46.088;18.268;2024-01-30T01:36:02;15.73;;;7.40;;
80675;SDS011;70041;46.088;18.268;2024-01-30T01:38:28;19.00;;;7.60;;
80675;SDS011;70041;46.088;18.268;2024-01-30T01:40:54;19.73;;;7.47;;
80675;SDS011;70041;46.088;18.268;2024-01-30T01:43:19;17.47;;;6.53;;
80675;SDS011;70041;46.088;18.268;2024-01-30T01:45:45;18.20;;;7.20;;
80675;SDS011;70041;46.088;18.268;2024-01-30T01:48:10;18.58;;;7.03;;
80675;SDS011;70041;46.088;18.268;2024-01-30T01:50:37;18.25;;;6.57;;
80675;SDS011;70041;46.088;18.268;2024-01-30T01:53:03;19.40;;;7.13;;
80675;SDS011;70041;46.088;18.268;2024-01-30T01:55:31;17.98;;;7.32;;
80675;SDS011;70041;46.088;18.268;2024-01-30T01:57:57;18.30;;;7.45;;
80675;SDS011;70041;46.088;18.268;2024-01-30T02:00:23;16.83;;;6.97;;
80675;SDS011;70041;46.088;18.268;2024-01-30T02:02:48;17.53;;;6.93;;
80675;SDS011;70041;46.088;18.268;2024-01-30T02:05:15;21.63;;;8.15;;
80675;SDS011;70041;46.088;18.268;2024-01-30T02:07:41;15.27;;;6.50;;
80675;SDS011;70041;46.088;18.268;2024-01-30T02:10:07;15.88;;;6.85;;
80675;SDS011;70041;46.088;18.268;2024-01-30T02:12:34;16.02;;;6.57;;
80675;SDS011;70041;46.088;18.268;2024-01-30T02:15:00;19.70;;;7.03;;
80675;SDS011;70041;46.088;18.268;2024-01-30T02:17:26;18.08;;;7.50;;
80675;SDS011;70041;46.088;18.268;2024-01-30T02:19:51;15.37;;;6.33;;
80675;SDS011;70041;46.088;18.268;2024-01-30T02:22:17;20.98;;;7.63;;
80675;SDS011;70041;46.088;18.268;2024-01-30T02:24:43;16.13;;;7.17;;
80675;SDS011;70041;46.088;18.268;2024-01-30T02:27:08;16.83;;;7.10;;
80675;SDS011;70041;46.088;18.268;2024-01-30T02:29:34;20.77;;;7.68;;
80675;SDS011;70041;46.088;18.268;2024-01-30T02:31:59;16.70;;;7.27;;
80675;SDS011;70041;46.088;18.268;2024-01-30T02:34:25;17.73;;;7.03;;
80675;SDS011;70041;46.088;18.268;2024-01-30T02:36:50;21.60;;;6.53;;
80675;SDS011;70041;46.088;18.268;2024-01-30T02:39:15;17.67;;;7.27;;
80675;SDS011;70041;46.088;18.268;2024-01-30T02:41:41;18.63;;;7.37;;
80675;SDS011;70041;46.088;18.268;2024-01-30T02:44:06;14.27;;;6.10;;
80675;SDS011;70041;46.088;18.268;2024-01-30T02:46:31;16.67;;;6.70;;
80675;SDS011;70041;46.088;18.268;2024-01-30T02:48:57;15.87;;;6.40;;
80675;SDS011;70041;46.088;18.268;2024-01-30T02:51:22;20.10;;;7.10;;
80675;SDS011;70041;46.088;18.268;2024-01-30T02:53:48;15.23;;;6.83;;
80675;SDS011;70041;46.088;18.268;2024-01-30T02:56:13;20.27;;;7.70;;
80675;SDS011;70041;46.088;18.268;2024-01-30T02:58:39;17.23;;;8.05;;
80675;SDS011;70041;46.088;18.268;2024-01-30T03:01:05;20.40;;;7.60;;
80675;SDS011;70041;46.088;18.268;2024-01-30T03:03:31;21.42;;;8.32;;
80675;SDS011;70041;46.088;18.268;2024-01-30T03:05:56;19.80;;;8.07;;
80675;SDS011;70041;46.088;18.268;2024-01-30T03:08:22;20.58;;;9.75;;
80675;SDS011;70041;46.088;18.268;2024-01-30T03:10:48;21.90;;;8.23;;
80675;SDS011;70041;46.088;18.268;2024-01-30T03:13:13;23.15;;;10.35;;
80675;SDS011;70041;46.088;18.268;2024-01-30T03:15:38;23.65;;;9.90;;
80675;SDS011;70041;46.088;18.268;2024-01-30T03:18:04;24.57;;;9.43;;
80675;SDS011;70041;46.088;18.268;2024-01-30T03:20:30;25.17;;;10.83;;
80675;SDS011;70041;46.088;18.268;2024-01-30T03:22:55;27.27;;;10.98;;
80675;SDS011;70041;46.088;18.268;2024-01-30T03:25:21;29.10;;;11.57;;
80675;SDS011;70041;46.088;18.268;2024-01-30T03:27:46;26.77;;;10.97;;
80675;SDS011;70041;46.088;18.268;2024-01-30T03:30:12;23.33;;;10.00;;
80675;SDS011;70041;46.088;18.268;2024-01-30T03:32:37;25.83;;;10.50;;
80675;SDS011;70041;46.088;18.268;2024-01-30T03:35:03;17.80;;;8.27;;
80675;SDS011;70041;46.088;18.268;2024-01-30T03:37:29;19.00;;;8.15;;
80675;SDS011;70041;46.088;18.268;2024-01-30T03:39:54;20.97;;;8.37;;
80675;SDS011;70041;46.088;18.268;2024-01-30T03:42:20;23.17;;;9.77;;
80675;SDS011;70041;46.088;18.268;2024-01-30T03:44:45;22.50;;;8.23;;
80675;SDS011;70041;46.088;18.268;2024-01-30T03:47:11;25.80;;;7.87;;
80675;SDS011;70041;46.088;18.268;2024-01-30T03:49:36;17.80;;;7.90;;
80675;SDS011;70041;46.088;18.268;2024-01-30T03:52:02;19.47;;;8.93;;
80675;SDS011;70041;46.088;18.268;2024-01-30T03:54:27;18.52;;;7.97;;
80675;SDS011;70041;46.088;18.268;2024-01-30T03:56:53;16.30;;;7.90;;
80675;SDS011;70041;46.088;18.268;2024-01-30T03:59:18;17.07;;;7.90;;
80675;SDS011;70041;46.088;18.268;2024-01-30T04:01:48;18.58;;;7.90;;
80675;SDS011;70041;46.088;18.268;2024-01-30T04:04:17;19.80;;;7.88;;
80675;SDS011;70041;46.088;18.268;2024-01-30T04:06:43;16.10;;;7.47;;
80675;SDS011;70041;46.088;18.268;2024-01-30T04:09:09;22.33;;;10.05;;
80675;SDS011;70041;46.088;18.268;2024-01-30T04:11:35;26.10;;;10.67;;
80675;SDS011;70041;46.088;18.268;2024-01-30T04:14:00;29.33;;;12.73;;
80675;SDS011;70041;46.088;18.268;2024-01-30T04:16:25;29.13;;;12.97;;
80675;SDS011;70041;46.088;18.268;2024-01-30T04:18:51;19.80;;;9.27;;
80675;SDS011;70041;46.088;18.268;2024-01-30T04:21:17;22.65;;;9.43;;
80675;SDS011;70041;46.088;18.268;2024-01-30T04:23:43;23.80;;;10.03;;
80675;SDS011;70041;46.088;18.268;2024-01-30T04:26:08;33.17;;;12.52;;
80675;SDS011;70041;46.088;18.268;2024-01-30T04:28:34;25.33;;;11.63;;
80675;SDS011;70041;46.088;18.268;2024-01-30T04:30:59;23.10;;;10.10;;
80675;SDS011;70041;46.088;18.268;2024-01-30T04:33:24;23.90;;;9.70;;
80675;SDS011;70041;46.088;18.268;2024-01-30T04:35:50;22.60;;;10.67;;
80675;SDS011;70041;46.088;18.268;2024-01-30T04:38:16;22.13;;;8.98;;
80675;SDS011;70041;46.088;18.268;2024-01-30T04:40:42;20.97;;;8.30;;
80675;SDS011;70041;46.088;18.268;2024-01-30T04:43:07;22.52;;;10.05;;
80675;SDS011;70041;46.088;18.268;2024-01-30T04:45:33;23.83;;;8.83;;
80675;SDS011;70041;46.088;18.268;2024-01-30T04:47:58;22.20;;;9.63;;
80675;SDS011;70041;46.088;18.268;2024-01-30T04:50:23;21.27;;;8.83;;
80675;SDS011;70041;46.088;18.268;2024-01-30T04:52:49;18.70;;;8.20;;
80675;SDS011;70041;46.088;18.268;2024-01-30T04:55:14;28.23;;;9.47;;
80675;SDS011;70041;46.088;18.268;2024-01-30T04:57:40;25.70;;;11.55;;
80675;SDS011;70041;46.088;18.268;2024-01-30T05:00:05;21.35;;;9.02;;
80675;SDS011;70041;46.088;18.268;2024-01-30T05:02:31;27.10;;;10.47;;
80675;SDS011;70041;46.088;18.268;2024-01-30T05:04:57;22.98;;;9.40;;
80675;SDS011;70041;46.088;18.268;2024-01-30T05:07:24;21.25;;;9.40;;
80675;SDS011;70041;46.088;18.268;2024-01-30T05:09:50;19.73;;;8.60;;
80675;SDS011;70041;46.088;18.268;2024-01-30T05:12:16;20.48;;;9.35;;
80675;SDS011;70041;46.088;18.268;2024-01-30T05:14:41;24.27;;;9.43;;
80675;SDS011;70041;46.088;18.268;2024-01-30T05:17:06;19.90;;;8.93;;
80675;SDS011;70041;46.088;18.268;2024-01-30T05:19:37;22.05;;;9.05;;
80675;SDS011;70041;46.088;18.268;2024-01-30T05:22:03;23.10;;;8.03;;
80675;SDS011;70041;46.088;18.268;2024-01-30T05:24:28;17.97;;;7.97;;
80675;SDS011;70041;46.088;18.268;2024-01-30T05:26:54;18.83;;;8.27;;
80675;SDS011;70041;46.088;18.268;2024-01-30T05:29:19;17.30;;;7.30;;
80675;SDS011;70041;46.088;18.268;2024-01-30T05:31:44;17.10;;;7.83;;
80675;SDS011;70041;46.088;18.268;2024-01-30T05:34:10;20.50;;;7.87;;
80675;SDS011;70041;46.088;18.268;2024-01-30T05:36:35;21.87;;;8.27;;
80675;SDS011;70041;46.088;18.268;2024-01-30T05:39:00;17.83;;;7.93;;
80675;SDS011;70041;46.088;18.268;2024-01-30T05:41:26;17.90;;;7.97;;
80675;SDS011;70041;46.088;18.268;2024-01-30T05:43:51;20.70;;;8.52;;
80675;SDS011;70041;46.088;18.268;2024-01-30T05:46:17;25.53;;;8.50;;
80675;SDS011;70041;46.088;18.268;2024-01-30T05:48:42;18.03;;;7.47;;
80675;SDS011;70041;46.088;18.268;2024-01-30T05:51:08;30.80;;;9.40;;
80675;SDS011;70041;46.088;18.268;2024-01-30T05:53:33;23.40;;;8.60;;
80675;SDS011;70041;46.088;18.268;2024-01-30T05:56:02;16.93;;;7.70;;
80675;SDS011;70041;46.088;18.268;2024-01-30T05:58:28;18.77;;;8.00;;
80675;SDS011;70041;46.088;18.268;2024-01-30T06:00:53;17.90;;;8.05;;
80675;SDS011;70041;46.088;18.268;2024-01-30T06:03:19;20.57;;;8.07;;
80675;SDS011;70041;46.088;18.268;2024-01-30T06:05:44;20.27;;;7.80;;
80675;SDS011;70041;46.088;18.268;2024-01-30T06:08:10;22.30;;;8.80;;
80675;SDS011;70041;46.088;18.268;2024-01-30T06:10:35;27.33;;;10.03;;
80675;SDS011;70041;46.088;18.268;2024-01-30T06:13:01;21.98;;;9.63;;
80675;SDS011;70041;46.088;18.268;2024-01-30T06:15:26;16.90;;;7.93;;
80675;SDS011;70041;46.088;18.268;2024-01-30T06:17:54;22.80;;;8.50;;
80675;SDS011;70041;46.088;18.268;2024-01-30T06:20:20;18.60;;;7.45;;
80675;SDS011;70041;46.088;18.268;2024-01-30T06:22:45;20.15;;;8.30;;
80675;SDS011;70041;46.088;18.268;2024-01-30T06:25:11;24.57;;;10.63;;
80675;SDS011;70041;46.088;18.268;2024-01-30T06:27:37;40.33;;;15.65;;
80675;SDS011;70041;46.088;18.268;2024-01-30T06:30:02;40.73;;;15.90;;
80675;SDS011;70041;46.088;18.268;2024-01-30T06:32:29;26.67;;;10.98;;
80675;SDS011;70041;46.088;18.268;2024-01-30T06:34:59;37.77;;;14.80;;
80675;SDS011;70041;46.088;18.268;2024-01-30T06:37:24;22.63;;;11.05;;
80675;SDS011;70041;46.088;18.268;2024-01-30T06:39:50;32.50;;;12.73;;
80675;SDS011;70041;46.088;18.268;2024-01-30T06:42:15;25.73;;;10.63;;
80675;SDS011;70041;46.088;18.268;2024-01-30T06:44:41;28.67;;;11.97;;
80675;SDS011;70041;46.088;18.268;2024-01-30T06:47:06;38.60;;;16.55;;
80675;SDS011;70041;46.088;18.268;2024-01-30T06:49:34;28.70;;;13.17;;
80675;SDS011;70041;46.088;18.268;2024-01-30T06:52:00;30.00;;;13.70;;
80675;SDS011;70041;46.088;18.268;2024-01-30T06:54:25;24.05;;;11.63;;
80675;SDS011;70041;46.088;18.268;2024-01-30T06:56:50;25.80;;;10.63;;
80675;SDS011;70041;46.088;18.268;2024-01-30T06:59:16;23.60;;;11.10;;
80675;SDS011;70041;46.088;18.268;2024-01-30T07:01:41;23.63;;;9.93;;
80675;SDS011;70041;46.088;18.268;2024-01-30T07:04:07;22.80;;;9.87;;
80675;SDS011;70041;46.088;18.268;2024-01-30T07:06:32;25.13;;;10.17;;
80675;SDS011;70041;46.088;18.268;2024-01-30T07:08:57;21.23;;;9.48;;
80675;SDS011;70041;46.088;18.268;2024-01-30T07:11:23;17.93;;;9.30;;
80675;SDS011;70041;46.088;18.268;2024-01-30T07:13:50;23.80;;;9.30;;
80675;SDS011;70041;46.088;18.268;2024-01-30T07:16:16;29.23;;;10.73;;
80675;SDS011;70041;46.088;18.268;2024-01-30T07:18:43;24.48;;;10.82;;
80675;SDS011;70041;46.088;18.268;2024-01-30T07:21:08;21.73;;;9.93;;
80675;SDS011;70041;46.088;18.268;2024-01-30T07:23:34;26.98;;;9.82;;
80675;SDS011;70041;46.088;18.268;2024-01-30T07:26:00;28.70;;;15.23;;
80675;SDS011;70041;46.088;18.268;2024-01-30T07:28:26;28.75;;;13.10;;
80675;SDS011;70041;46.088;18.268;2024-01-30T07:30:51;24.13;;;10.80;;
80675;SDS011;70041;46.088;18.268;2024-01-30T07:33:17;26.80;;;12.30;;
80675;SDS011;70041;46.088;18.268;2024-01-30T07:35:43;25.70;;;12.23;;
80675;SDS011;70041;46.088;18.268;2024-01-30T07:38:08;27.77;;;12.48;;
80675;SDS011;70041;46.088;18.268;2024-01-30T07:40:34;28.60;;;12.80;;
80675;SDS011;70041;46.088;18.268;2024-01-30T07:42:59;26.65;;;13.48;;
80675;SDS011;70041;46.088;18.268;2024-01-30T07:45:25;25.37;;;11.50;;
80675;SDS011;70041;46.088;18.268;2024-01-30T07:47:52;25.55;;;10.43;;
80675;SDS011;70041;46.088;18.268;2024-01-30T07:50:21;25.52;;;11.65;;
80675;SDS011;70041;46.088;18.268;2024-01-30T07:52:46;25.83;;;10.97;;
80675;SDS011;70041;46.088;18.268;2024-01-30T07:55:16;25.83;;;11.52;;
80675;SDS011;70041;46.088;18.268;2024-01-30T07:57:41;28.33;;;11.47;;
80675;SDS011;70041;46.088;18.268;2024-01-30T08:00:08;28.67;;;11.73;;
80675;SDS011;70041;46.088;18.268;2024-01-30T08:02:33;23.73;;;9.90;;
80675;SDS011;70041;46.088;18.268;2024-01-30T08:04:59;18.67;;;8.47;;
80675;SDS011;70041;46.088;18.268;2024-01-30T08:07:24;21.43;;;9.60;;
80675;SDS011;70041;46.088;18.268;2024-01-30T08:09:50;23.60;;;8.50;;
80675;SDS011;70041;46.088;18.268;2024-01-30T08:12:15;19.20;;;8.48;;
80675;SDS011;70041;46.088;18.268;2024-01-30T08:14:41;19.57;;;8.27;;
80675;SDS011;70041;46.088;18.268;2024-01-30T08:17:07;19.07;;;7.73;;
80675;SDS011;70041;46.088;18.268;2024-01-30T08:19:32;18.88;;;6.70;;
80675;SDS011;70041;46.088;18.268;2024-01-30T08:21:58;18.73;;;7.20;;
80675;SDS011;70041;46.088;18.268;2024-01-30T08:24:23;19.02;;;7.43;;
80675;SDS011;70041;46.088;18.268;2024-01-30T08:26:49;16.57;;;7.07;;
80675;SDS011;70041;46.088;18.268;2024-01-30T08:29:14;19.70;;;7.70;;
80675;SDS011;70041;46.088;18.268;2024-01-30T08:31:40;17.85;;;7.68;;
80675;SDS011;70041;46.088;18.268;2024-01-30T08:34:05;20.73;;;8.68;;
80675;SDS011;70041;46.088;18.268;2024-01-30T08:36:31;16.57;;;7.37;;
80675;SDS011;70041;46.088;18.268;2024-01-30T08:38:56;17.23;;;8.23;;
80675;SDS011;70041;46.088;18.268;2024-01-30T08:41:21;20.27;;;8.77;;
80675;SDS011;70041;46.088;18.268;2024-01-30T08:43:47;15.73;;;7.00;;
80675;SDS011;70041;46.088;18.268;2024-01-30T08:46:12;17.48;;;8.23;;
80675;SDS011;70041;46.088;18.268;2024-01-30T08:48:38;20.03;;;8.47;;
80675;SDS011;70041;46.088;18.268;2024-01-30T08:51:03;19.37;;;8.70;;
80675;SDS011;70041;46.088;18.268;2024-01-30T08:53:33;20.85;;;9.43;;
80675;SDS011;70041;46.088;18.268;2024-01-30T08:55:58;21.80;;;9.13;;
80675;SDS011;70041;46.088;18.268;2024-01-30T08:58:24;15.97;;;7.27;;
80675;SDS011;70041;46.088;18.268;2024-01-30T09:00:49;19.20;;;7.78;;
80675;SDS011;70041;46.088;18.268;2024-01-30T09:03:16;18.53;;;7.67;;
80675;SDS011;70041;46.088;18.268;2024-01-30T09:05:42;25.58;;;10.35;;
80675;SDS011;70041;46.088;18.268;2024-01-30T09:08:07;67.53;;;20.30;;
80675;SDS011;70041;46.088;18.268;2024-01-30T09:10:32;27.57;;;10.30;;
80675;SDS011;70041;46.088;18.268;2024-01-30T09:12:58;16.00;;;7.03;;
80675;SDS011;70041;46.088;18.268;2024-01-30T09:15:23;19.27;;;8.33;;
80675;SDS011;70041;46.088;18.268;2024-01-30T09:17:49;25.27;;;10.40;;
80675;SDS011;70041;46.088;18.268;2024-01-30T09:20:14;19.63;;;8.50;;
80675;SDS011;70041;46.088;18.268;2024-01-30T09:22:40;26.08;;;9.20;;
80675;SDS011;70041;46.088;18.268;2024-01-30T09:25:05;20.63;;;8.93;;
80675;SDS011;70041;46.088;18.268;2024-01-30T09:27:30;20.30;;;9.07;;
80675;SDS011;70041;46.088;18.268;2024-01-30T09:29:56;19.87;;;7.90;;
80675;SDS011;70041;46.088;18.268;2024-01-30T09:32:21;21.02;;;8.70;;
80675;SDS011;70041;46.088;18.268;2024-01-30T09:34:47;20.63;;;8.32;;
80675;SDS011;70041;46.088;18.268;2024-01-30T09:37:12;18.50;;;8.00;;
80675;SDS011;70041;46.088;18.268;2024-01-30T09:39:40;22.15;;;9.88;;
80675;SDS011;70041;46.088;18.268;2024-01-30T09:42:10;29.13;;;11.07;;
80675;SDS011;70041;46.088;18.268;2024-01-30T09:44:39;23.58;;;8.52;;
80675;SDS011;70041;46.088;18.268;2024-01-30T09:47:08;14.23;;;7.40;;
80675;SDS011;70041;46.088;18.268;2024-01-30T09:49:35;19.42;;;8.63;;
80675;SDS011;70041;46.088;18.268;2024-01-30T09:52:01;17.48;;;7.68;;
80675;SDS011;70041;46.088;18.268;2024-01-30T09:54:30;19.40;;;9.57;;
80675;SDS011;70041;46.088;18.268;2024-01-30T09:56:56;17.70;;;8.53;;
80675;SDS011;70041;46.088;18.268;2024-01-30T09:59:22;22.23;;;8.18;;
80675;SDS011;70041;46.088;18.268;2024-01-30T10:01:48;17.30;;;7.80;;
80675;SDS011;70041;46.088;18.268;2024-01-30T10:04:15;16.27;;;7.40;;
80675;SDS011;70041;46.088;18.268;2024-01-30T10:06:40;18.27;;;8.30;;
80675;SDS011;70041;46.088;18.268;2024-01-30T10:09:06;20.75;;;8.82;;
80675;SDS011;70041;46.088;18.268;2024-01-30T10:11:33;20.85;;;8.70;;
80675;SDS011;70041;46.088;18.268;2024-01-30T10:13:59;20.30;;;9.20;;
80675;SDS011;70041;46.088;18.268;2024-01-30T10:16:25;15.18;;;7.90;;
80675;SDS011;70041;46.088;18.268;2024-01-30T10:18:50;18.50;;;8.60;;
80675;SDS011;70041;46.088;18.268;2024-01-30T10:21:16;18.55;;;8.57;;
80675;SDS011;70041;46.088;18.268;2024-01-30T10:23:43;22.90;;;11.10;;
80675;SDS011;70041;46.088;18.268;2024-01-30T10:26:09;28.23;;;9.60;;
80675;SDS011;70041;46.088;18.268;2024-01-30T10:28:35;25.53;;;7.90;;
80675;SDS011;70041;46.088;18.268;2024-01-30T10:31:00;30.10;;;9.27;;
80675;SDS011;70041;46.088;18.268;2024-01-30T10:33:29;20.00;;;7.47;;
80675;SDS011;70041;46.088;18.268;2024-01-30T10:36:01;17.87;;;7.70;;
80675;SDS011;70041;46.088;18.268;2024-01-30T10:38:28;19.63;;;7.70;;
80675;SDS011;70041;46.088;18.268;2024-01-30T10:40:58;15.63;;;6.65;;
80675;SDS011;70041;46.088;18.268;2024-01-30T10:43:40;18.33;;;7.15;;
80675;SDS011;70041;46.088;18.268;2024-01-30T10:48:40;16.83;;;7.60;;
80675;SDS011;70041;46.088;18.268;2024-01-30T10:51:09;17.20;;;7.85;;
80675;SDS011;70041;46.088;18.268;2024-01-30T10:53:39;16.45;;;7.75;;
80675;SDS011;70041;46.088;18.268;2024-01-30T10:56:04;16.73;;;7.15;;
80675;SDS011;70041;46.088;18.268;2024-01-30T10:58:30;18.43;;;8.50;;
80675;SDS011;70041;46.088;18.268;2024-01-30T11:00:56;17.92;;;7.57;;
80675;SDS011;70041;46.088;18.268;2024-01-30T11:03:22;14.90;;;6.93;;
80675;SDS011;70041;46.088;18.268;2024-01-30T11:05:49;20.60;;;8.82;;
80675;SDS011;70041;46.088;18.268;2024-01-30T11:08:22;23.85;;;9.02;;
80675;SDS011;70041;46.088;18.268;2024-01-30T11:10:49;17.23;;;8.02;;
80675;SDS011;70041;46.088;18.268;2024-01-30T11:13:15;18.40;;;8.83;;
80675;SDS011;70041;46.088;18.268;2024-01-30T11:15:41;22.95;;;10.52;;
80675;SDS011;70041;46.088;18.268;2024-01-30T11:18:06;24.20;;;10.20;;
80675;SDS011;70041;46.088;18.268;2024-01-30T11:20:32;19.50;;;9.57;;
80675;SDS011;70041;46.088;18.268;2024-01-30T11:22:58;14.90;;;7.93;;
80675;SDS011;70041;46.088;18.268;2024-01-30T11:25:25;19.65;;;9.10;;
80675;SDS011;70041;46.088;18.268;2024-01-30T11:27:52;17.70;;;8.30;;
80675;SDS011;70041;46.088;18.268;2024-01-30T11:32:57;20.40;;;8.70;;
80675;SDS011;70041;46.088;18.268;2024-01-30T11:35:29;26.90;;;11.17;;
80675;SDS011;70041;46.088;18.268;2024-01-30T11:37:57;24.58;;;11.20;;
80675;SDS011;70041;46.088;18.268;2024-01-30T11:40:28;19.83;;;9.50;;
80675;SDS011;70041;46.088;18.268;2024-01-30T11:42:55;18.83;;;9.07;;
80675;SDS011;70041;46.088;18.268;2024-01-30T11:45:21;20.17;;;9.40;;
80675;SDS011;70041;46.088;18.268;2024-01-30T11:47:47;24.07;;;10.43;;
80675;SDS011;70041;46.088;18.268;2024-01-30T11:50:12;22.70;;;10.75;;
80675;SDS011;70041;46.088;18.268;2024-01-30T11:52:38;24.63;;;10.13;;
80675;SDS011;70041;46.088;18.268;2024-01-30T11:55:04;19.77;;;9.25;;
80675;SDS011;70041;46.088;18.268;2024-01-30T11:57:32;16.83;;;8.93;;
80675;SDS011;70041;46.088;18.268;2024-01-30T11:59:59;17.77;;;7.90;;
80675;SDS011;70041;46.088;18.268;2024-01-30T12:02:25;16.30;;;7.57;;
80675;SDS011;70041;46.088;18.268;2024-01-30T12:04:51;15.73;;;8.50;;
80675;SDS011;70041;46.088;18.268;2024-01-30T12:07:16;15.35;;;8.10;;
80675;SDS011;70041;46.088;18.268;2024-01-30T12:09:42;15.17;;;6.70;;
80675;SDS011;70041;46.088;18.268;2024-01-30T12:12:10;17.53;;;8.60;;
80675;SDS011;70041;46.088;18.268;2024-01-30T12:14:37;16.67;;;7.40;;
80675;SDS011;70041;46.088;18.268;2024-01-30T12:17:04;16.88;;;7.47;;
80675;SDS011;70041;46.088;18.268;2024-01-30T12:19:30;16.20;;;7.13;;
80675;SDS011;70041;46.088;18.268;2024-01-30T12:21:58;16.08;;;8.60;;
80675;SDS011;70041;46.088;18.268;2024-01-30T12:24:25;14.65;;;7.30;;
80675;SDS011;70041;46.088;18.268;2024-01-30T12:26:51;15.68;;;7.38;;
80675;SDS011;70041;46.088;18.268;2024-01-30T12:29:17;16.50;;;6.47;;
80675;SDS011;70041;46.088;18.268;2024-01-30T12:31:42;14.53;;;7.33;;
80675;SDS011;70041;46.088;18.268;2024-01-30T12:34:08;14.77;;;6.18;;
80675;SDS011;70041;46.088;18.268;2024-01-30T12:36:34;18.48;;;6.60;;
80675;SDS011;70041;46.088;18.268;2024-01-30T12:39:00;15.97;;;7.27;;
80675;SDS011;70041;46.088;18.268;2024-01-30T12:41:26;16.15;;;7.35;;
80675;SDS011;70041;46.088;18.268;2024-01-30T12:43:54;16.90;;;7.28;;
80675;SDS011;70041;46.088;18.268;2024-01-30T12:46:55;18.00;;;8.77;;
80675;SDS011;70041;46.088;18.268;2024-01-30T12:49:21;17.52;;;9.10;;
80675;SDS011;70041;46.088;18.268;2024-01-30T12:51:47;16.97;;;8.20;;
80675;SDS011;70041;46.088;18.268;2024-01-30T12:54:12;18.17;;;8.48;;
80675;SDS011;70041;46.088;18.268;2024-01-30T12:56:38;20.57;;;9.17;;
80675;SDS011;70041;46.088;18.268;2024-01-30T12:59:03;20.23;;;9.50;;
80675;SDS011;70041;46.088;18.268;2024-01-30T13:01:29;18.53;;;8.90;;
80675;SDS011;70041;46.088;18.268;2024-01-30T13:03:54;15.43;;;7.50;;
80675;SDS011;70041;46.088;18.268;2024-01-30T13:06:22;18.40;;;7.70;;
80675;SDS011;70041;46.088;18.268;2024-01-30T13:08:47;21.13;;;9.00;;
80675;SDS011;70041;46.088;18.268;2024-01-30T13:11:13;19.40;;;9.70;;
80675;SDS011;70041;46.088;18.268;2024-01-30T13:13:38;19.60;;;9.33;;
80675;SDS011;70041;46.088;18.268;2024-01-30T13:16:04;21.00;;;9.90;;
80675;SDS011;70041;46.088;18.268;2024-01-30T13:18:31;17.48;;;8.48;;
80675;SDS011;70041;46.088;18.268;2024-01-30T13:20:57;18.73;;;8.87;;
80675;SDS011;70041;46.088;18.268;2024-01-30T13:23:22;15.65;;;5.97;;
80675;SDS011;70041;46.088;18.268;2024-01-30T13:25:47;13.77;;;5.90;;
80675;SDS011;70041;46.088;18.268;2024-01-30T13:28:13;9.07;;;4.40;;
80675;SDS011;70041;46.088;18.268;2024-01-30T13:30:38;10.87;;;4.37;;
80675;SDS011;70041;46.088;18.268;2024-01-30T13:33:04;10.63;;;4.97;;
80675;SDS011;70041;46.088;18.268;2024-01-30T13:35:29;9.52;;;4.55;;
80675;SDS011;70041;46.088;18.268;2024-01-30T13:37:55;10.00;;;4.70;;
80675;SDS011;70041;46.088;18.268;2024-01-30T13:40:20;10.70;;;4.43;;
80675;SDS011;70041;46.088;18.268;2024-01-30T13:42:47;16.23;;;6.88;;
80675;SDS011;70041;46.088;18.268;2024-01-30T13:45:13;8.90;;;5.25;;
80675;SDS011;70041;46.088;18.268;2024-01-30T13:47:38;16.40;;;6.22;;
80675;SDS011;70041;46.088;18.268;2024-01-30T13:50:04;15.23;;;6.37;;
80675;SDS011;70041;46.088;18.268;2024-01-30T13:52:30;18.83;;;8.10;;
80675;SDS011;70041;46.088;18.268;2024-01-30T13:54:55;16.67;;;7.37;;
80675;SDS011;70041;46.088;18.268;2024-01-30T13:57:21;16.30;;;6.90;;
80675;SDS011;70041;46.088;18.268;2024-01-30T13:59:46;12.52;;;5.95;;
80675;SDS011;70041;46.088;18.268;2024-01-30T14:02:12;16.80;;;6.73;;
80675;SDS011;70041;46.088;18.268;2024-01-30T14:04:37;16.07;;;6.93;;
80675;SDS011;70041;46.088;18.268;2024-01-30T14:07:03;19.80;;;9.40;;
80675;SDS011;70041;46.088;18.268;2024-01-30T14:09:30;41.65;;;11.90;;
80675;SDS011;70041;46.088;18.268;2024-01-30T14:11:57;21.60;;;9.13;;
80675;SDS011;70041;46.088;18.268;2024-01-30T14:14:23;17.65;;;8.23;;
80675;SDS011;70041;46.088;18.268;2024-01-30T14:16:48;17.57;;;7.90;;